KCRP/CRP METAR and TAF weather

Enter ICAO airport designator
Station Type Date Time Source
KCRP METAR 2021/08/04 19:51 UTC NOAA

KCRP 041951Z VRB05KT 10SM FEW037TCU SCT065 SCT100 BKN250 34/25 A2993 RMK AO2 LTG DSNT W SLP135 CB DSNT W MOV NW TCU SE S SW-W DSNT N NE W NW VCSH SW-W T03390250


Station Type Date Time Source
KCRP Decoded METAR 2021/08/04 19:51 UTC NOAA

CORPUS CHRISTI INTERNATIONAL , TX, United States (KCRP) 27-46N 97-31W 16M
Aug 04, 2021 - 03:51 PM EDT / 2021.08.04 1951 UTC
Wind: Variable at 6 MPH (5 KT):0
Visibility: 10 mile(s):0
Sky conditions: mostly cloudy
Weather: Cumulonimbus clouds, towering cumulus clouds, lightning observed
Temperature: 93.0 F (33.9 C)
Heat index: 106.7 F (41.5 C):1
Dew Point: 77.0 F (25.0 C)
Relative Humidity: 59%
Pressure (altimeter): 29.93 in. Hg (1013 hPa)
ob: KCRP 041951Z VRB05KT 10SM FEW037TCU SCT065 SCT100 BKN250 34/25 A2993 RMK AO2 LTG DSNT W SLP135 CB DSNT W MOV NW TCU SE S SW-W DSNT N NE W NW VCSH SW-W T03390250
cycle: 20

Station Type Date Time Source
KCRP TAF 2021/08/04 18:42 UTC NOAA

TAF KCRP 041740Z 0418/0518 12008KT P6SM SCT040 BKN100
TEMPO 0418/0420 BKN025
FM042100 11010KT P6SM VCTS SCT040CB BKN250
FM050200 14005KT P6SM BKN025 OVC150
FM050700 14005KT P6SM VCTS BKN025CB OVC150
FM051500 16005KT P6SM VCTS SCT025CB BKN150

Example: see airport list